Time;durP1;ratioP1;P1;durP2;ratioP2;P2;SDS_P1;SDS_P2;PMS_P1;PMS_P2;Temp;Humidity;BMP_temperature;BMP_pressure;BME280_temperature;BME280_humidity;BME280_pressure;Samples;Min_cycle;Max_cycle;Signal;HPM_P1;HPM_P2
2023/11/02 00:01:00;;;;;;;5.50;2.75;;;7.30;85.90;;;;;;5094452;28;20192;-74
2023/11/02 00:03:32;;;;;;;5.55;2.85;;;7.30;86.10;;;;;;5094345;28;20214;-74
2023/11/02 00:06:20;;;;;;;6.75;2.60;;;7.30;86.40;;;;;;5094984;28;20239;-74
2023/11/02 00:09:22;;;;;;;8.63;2.65;;;7.20;86.40;;;;;;5094694;28;20300;-74
2023/11/02 00:11:55;;;;;;;5.05;2.92;;;7.30;86.70;;;;;;5094293;28;20222;-74
2023/11/02 00:14:26;;;;;;;5.70;2.60;;;7.20;86.20;;;;;;5093821;28;20178;-74
2023/11/02 00:16:56;;;;;;;5.55;3.85;;;7.20;85.60;;;;;;5094435;28;20681;-74
2023/11/02 00:19:30;;;;;;;4.72;3.05;;;7.20;85.50;;;;;;5094201;28;20675;-74
2023/11/02 00:21:58;;;;;;;4.30;3.40;;;7.20;86.10;;;;;;5094567;28;20207;-74
2023/11/02 00:24:26;;;;;;;5.15;4.45;;;7.20;86.60;;;;;;5093962;28;20197;-74
2023/11/02 00:26:56;;;;;;;7.65;4.68;;;7.20;86.70;;;;;;5094278;28;20241;-74
2023/11/02 00:29:22;;;;;;;7.03;3.92;;;7.10;86.30;;;;;;5094246;28;20684;-74
2023/11/02 00:31:50;;;;;;;10.23;3.55;;;7.10;85.80;;;;;;5094328;28;20193;-73
2023/11/02 00:34:17;;;;;;;4.20;2.78;;;7.10;85.50;;;;;;5094383;28;20611;-74
2023/11/02 00:36:44;;;;;;;3.95;2.50;;;7.00;85.30;;;;;;5093885;28;20247;-74
2023/11/02 00:39:11;;;;;;;3.67;2.22;;;7.00;85.00;;;;;;5094241;28;20261;-74
2023/11/02 00:41:38;;;;;;;3.55;2.20;;;7.00;84.10;;;;;;5094050;28;20579;-74
2023/11/02 00:44:09;;;;;;;7.80;2.80;;;7.00;83.00;;;;;;5093926;28;20648;-74
2023/11/02 00:46:36;;;;;;;4.22;2.97;;;7.00;81.90;;;;;;5093868;28;20230;-74
2023/11/02 00:49:04;;;;;;;4.20;2.88;;;7.00;81.30;;;;;;5093778;28;20213;-74
2023/11/02 00:51:31;;;;;;;6.57;2.53;;;6.90;80.30;;;;;;5094007;28;20296;-74
2023/11/02 00:53:59;;;;;;;3.95;2.75;;;6.80;80.30;;;;;;5093910;28;20197;-74
2023/11/02 00:56:31;;;;;;;5.80;2.35;;;6.70;80.30;;;;;;5093841;28;20238;-74
2023/11/02 00:58:59;;;;;;;3.58;2.10;;;6.70;81.30;;;;;;5093531;28;20193;-74
2023/11/02 01:01:28;;;;;;;3.30;1.70;;;6.70;81.50;;;;;;5093210;28;20664;-74
2023/11/02 01:03:57;;;;;;;5.53;1.60;;;6.60;82.00;;;;;;5093545;28;20274;-74
2023/11/02 01:06:28;;;;;;;3.70;2.45;;;6.60;82.40;;;;;;5093791;28;20649;-74
2023/11/02 01:08:59;;;;;;;3.35;2.03;;;6.60;81.90;;;;;;5091714;28;20193;-74
2023/11/02 01:11:36;;;;;;;4.95;2.13;;;6.50;81.40;;;;;;5092991;28;20197;-74
2023/11/02 01:14:33;;;;;;;4.00;2.15;;;6.40;82.60;;;;;;5093810;28;20173;-74
2023/11/02 01:17:01;;;;;;;3.97;1.80;;;6.40;83.70;;;;;;5093538;28;20194;-74
2023/11/02 01:20:05;;;;;;;5.43;2.00;;;6.40;83.90;;;;;;5092849;28;20662;-73
2023/11/02 01:23:04;;;;;;;3.33;2.60;;;6.40;84.50;;;;;;5051124;28;20307;-73
2023/11/02 01:25:31;;;;;;;4.65;2.63;;;6.40;85.40;;;;;;5093670;28;20185;-74
2023/11/02 01:28:02;;;;;;;3.30;2.03;;;6.40;85.60;;;;;;5096094;28;20615;-75
2023/11/02 01:31:13;;;;;;;3.33;1.73;;;6.40;84.80;;;;;;5081297;28;20204;-73
2023/11/02 01:34:01;;;;;;;3.15;1.90;;;6.30;83.00;;;;;;5097599;28;20194;-74
2023/11/02 01:36:33;;;;;;;3.45;2.25;;;6.20;82.40;;;;;;5097318;28;20189;-74
2023/11/02 01:39:09;;;;;;;3.95;1.98;;;6.20;82.20;;;;;;5097038;28;20226;-73
2023/11/02 01:41:50;;;;;;;4.78;1.90;;;6.20;81.60;;;;;;5097202;28;20673;-74
2023/11/02 01:44:20;;;;;;;5.95;2.05;;;6.10;81.20;;;;;;5097551;28;20177;-73
2023/11/02 01:46:57;;;;;;;2.95;1.65;;;6.10;82.90;;;;;;5097197;28;20220;-74
2023/11/02 01:49:51;;;;;;;2.97;1.75;;;6.00;83.00;;;;;;5096778;28;20233;-74
2023/11/02 01:52:37;;;;;;;12.45;2.03;;;6.10;84.10;;;;;;5097381;28;20213;-73
2023/11/02 01:55:12;;;;;;;3.58;1.83;;;6.10;84.70;;;;;;5097421;28;20227;-74
2023/11/02 01:57:58;;;;;;;5.80;1.75;;;6.10;85.20;;;;;;5097243;28;20308;-74
2023/11/02 02:00:33;;;;;;;3.83;1.85;;;6.10;85.80;;;;;;5097058;28;20185;-73
2023/11/02 02:03:08;;;;;;;3.50;2.10;;;6.10;85.80;;;;;;5096954;28;20703;-74
2023/11/02 02:05:43;;;;;;;2.80;1.48;;;6.10;85.60;;;;;;5096493;28;20177;-73
2023/11/02 02:08:27;;;;;;;5.50;1.77;;;6.10;85.20;;;;;;5097108;28;20178;-74
2023/11/02 02:11:04;;;;;;;4.20;1.55;;;6.10;85.30;;;;;;5096633;28;20205;-74
2023/11/02 02:13:41;;;;;;;3.30;1.55;;;6.10;85.00;;;;;;5094846;28;20177;-73
2023/11/02 02:16:15;;;;;;;3.85;1.73;;;6.10;84.70;;;;;;5096978;28;20277;-74
2023/11/02 02:18:46;;;;;;;2.40;1.27;;;6.10;83.90;;;;;;5096893;28;20216;-74
2023/11/02 02:21:24;;;;;;;4.60;2.53;;;6.00;83.10;;;;;;5095759;28;20684;-74
2023/11/02 02:23:58;;;;;;;3.30;2.22;;;6.00;83.00;;;;;;5095014;28;20231;-74
2023/11/02 02:27:03;;;;;;;5.72;2.00;;;6.00;83.40;;;;;;5095197;28;20264;-73
2023/11/02 02:30:02;;;;;;;4.65;2.03;;;5.90;82.60;;;;;;5095188;28;20217;-74
2023/11/02 02:32:59;;;;;;;5.50;2.65;;;5.80;82.70;;;;;;5082957;28;20194;-73
2023/11/02 02:35:35;;;;;;;4.47;2.30;;;5.80;83.30;;;;;;5078167;28;20193;-73
2023/11/02 02:38:10;;;;;;;3.70;2.20;;;5.70;83.50;;;;;;5094499;28;20178;-74
2023/11/02 02:40:51;;;;;;;3.22;2.05;;;5.70;84.20;;;;;;5095345;28;20181;-73
2023/11/02 02:43:20;;;;;;;4.80;1.98;;;5.70;84.70;;;;;;5094935;28;20203;-73
2023/11/02 02:45:49;;;;;;;5.07;2.00;;;5.70;84.50;;;;;;5095196;28;20547;-73
2023/11/02 02:48:17;;;;;;;4.20;1.92;;;5.80;83.40;;;;;;5094896;28;20243;-74
2023/11/02 02:50:50;;;;;;;2.90;1.90;;;5.70;82.20;;;;;;5094734;28;20213;-74
2023/11/02 02:53:19;;;;;;;3.95;2.35;;;5.60;81.60;;;;;;5094610;28;20277;-74
2023/11/02 02:55:49;;;;;;;4.90;2.67;;;5.60;81.40;;;;;;5094645;28;20640;-73
2023/11/02 02:58:20;;;;;;;3.53;1.92;;;5.50;81.20;;;;;;5094842;28;20246;-73
2023/11/02 03:00:49;;;;;;;4.85;1.77;;;5.40;81.70;;;;;;5094445;28;20205;-74
2023/11/02 03:03:23;;;;;;;4.00;1.95;;;5.30;82.00;;;;;;5094558;28;20250;-73
2023/11/02 03:05:54;;;;;;;3.80;2.15;;;5.30;82.50;;;;;;5094619;28;20232;-74
2023/11/02 03:08:24;;;;;;;4.90;2.20;;;5.30;81.50;;;;;;5094784;28;20173;-74
2023/11/02 03:10:52;;;;;;;4.25;1.55;;;5.30;81.20;;;;;;5093876;28;20270;-74
2023/11/02 03:13:24;;;;;;;3.40;1.90;;;5.30;82.00;;;;;;5093929;28;20221;-73
2023/11/02 03:15:54;;;;;;;3.58;2.28;;;5.30;83.00;;;;;;5093591;28;20190;-74
2023/11/02 03:18:30;;;;;;;4.22;2.20;;;5.30;83.40;;;;;;5094372;28;20207;-73
2023/11/02 03:20:59;;;;;;;3.00;1.93;;;5.30;84.40;;;;;;5053623;28;1180597;-73
2023/11/02 03:23:34;;;;;;;5.05;4.00;;;5.40;85.00;;;;;;5095565;28;20434;-73
2023/11/02 03:26:09;;;;;;;5.05;4.10;;;5.40;85.60;;;;;;5095320;28;20182;-74
2023/11/02 03:28:46;;;;;;;6.80;4.97;;;5.40;86.00;;;;;;5094965;28;20638;-74
2023/11/02 03:31:23;;;;;;;3.65;2.45;;;5.50;86.10;;;;;;5095416;28;20197;-74
2023/11/02 03:34:09;;;;;;;3.65;2.05;;;5.50;85.70;;;;;;5095485;28;20190;-73
2023/11/02 03:36:50;;;;;;;4.35;1.95;;;5.50;86.00;;;;;;5092118;28;20178;-73
2023/11/02 03:39:29;;;;;;;3.38;1.58;;;5.50;85.60;;;;;;5094753;28;20574;-73
2023/11/02 03:42:05;;;;;;;3.10;1.80;;;5.50;85.00;;;;;;5095283;28;20177;-73
2023/11/02 03:44:40;;;;;;;4.20;2.35;;;5.50;84.00;;;;;;5094913;28;20181;-74
2023/11/02 03:47:24;;;;;;;4.63;1.90;;;5.50;83.50;;;;;;5094611;28;20191;-74
2023/11/02 03:50:02;;;;;;;3.58;2.05;;;5.50;83.70;;;;;;5093994;28;20737;-74
2023/11/02 03:52:43;;;;;;;3.97;1.85;;;5.60;83.30;;;;;;5094740;28;20265;-73
2023/11/02 03:55:24;;;;;;;2.90;1.67;;;5.70;83.60;;;;;;5095087;28;20178;-73
2023/11/02 03:58:03;;;;;;;3.15;2.03;;;5.70;82.60;;;;;;5094876;28;20281;-73
2023/11/02 04:00:35;;;;;;;3.85;2.83;;;5.70;82.70;;;;;;5094460;28;20269;-74
2023/11/02 04:03:07;;;;;;;5.45;2.00;;;5.80;82.00;;;;;;5094943;28;20178;-73
2023/11/02 04:05:39;;;;;;;3.45;2.22;;;5.70;81.80;;;;;;5094877;28;20181;-73
2023/11/02 04:08:15;;;;;;;5.10;2.90;;;5.70;82.40;;;;;;5094493;28;20632;-73
2023/11/02 04:10:55;;;;;;;3.75;2.33;;;5.60;83.90;;;;;;5094698;28;20591;-73
2023/11/02 04:13:23;;;;;;;4.22;2.22;;;5.70;84.80;;;;;;5074395;28;20232;-73
2023/11/02 04:15:53;;;;;;;4.90;2.95;;;5.80;84.90;;;;;;5086231;28;20614;-73
2023/11/02 04:18:20;;;;;;;10.10;2.50;;;5.70;84.80;;;;;;5094601;28;20193;-73
2023/11/02 04:20:51;;;;;;;4.72;2.30;;;5.80;84.90;;;;;;5094720;28;20278;-73
2023/11/02 04:23:20;;;;;;;7.57;2.60;;;5.70;84.90;;;;;;5094325;28;20177;-73
2023/11/02 04:25:50;;;;;;;3.55;2.08;;;5.80;85.20;;;;;;5094135;28;20280;-73
2023/11/02 04:28:17;;;;;;;4.57;2.78;;;5.80;85.60;;;;;;5094022;28;20189;-74
2023/11/02 04:30:44;;;;;;;3.58;2.03;;;5.90;86.80;;;;;;5094096;28;20221;-73
2023/11/02 04:33:12;;;;;;;3.20;2.00;;;5.90;86.30;;;;;;5094026;28;20280;-73
2023/11/02 04:35:39;;;;;;;2.90;1.85;;;5.90;86.30;;;;;;5093788;28;20177;-73
2023/11/02 04:38:07;;;;;;;5.35;2.47;;;5.90;86.50;;;;;;5094182;28;20196;-75
2023/11/02 04:40:36;;;;;;;4.57;1.75;;;5.90;86.60;;;;;;5093982;28;20189;-73
2023/11/02 04:43:05;;;;;;;3.10;1.50;;;6.00;86.70;;;;;;5094082;28;20224;-73
2023/11/02 04:45:33;;;;;;;3.78;2.25;;;6.10;86.00;;;;;;5093896;28;20177;-73
2023/11/02 04:48:02;;;;;;;2.90;1.60;;;6.10;85.40;;;;;;5093691;28;20196;-73
2023/11/02 04:50:29;;;;;;;2.80;1.70;;;6.10;85.00;;;;;;5093998;28;20278;-73
2023/11/02 04:52:56;;;;;;;3.10;1.73;;;6.00;85.80;;;;;;5094079;28;20190;-74
2023/11/02 04:55:23;;;;;;;3.22;1.55;;;5.90;86.10;;;;;;5093716;28;20591;-73
2023/11/02 04:57:51;;;;;;;3.22;1.90;;;6.00;87.00;;;;;;5093203;28;20221;-74
2023/11/02 05:00:19;;;;;;;7.78;4.28;;;6.10;87.30;;;;;;5093788;28;20197;-73
2023/11/02 05:02:46;;;;;;;3.03;1.73;;;6.10;87.50;;;;;;5093851;28;20189;-74
2023/11/02 05:05:13;;;;;;;3.47;2.00;;;6.20;87.80;;;;;;5093570;28;20239;-74
2023/11/02 05:07:40;;;;;;;5.40;2.22;;;6.20;87.80;;;;;;5093178;28;20207;-73
2023/11/02 05:10:08;;;;;;;4.18;1.73;;;6.30;87.80;;;;;;5093502;28;20190;-74
2023/11/02 05:12:35;;;;;;;2.95;1.65;;;6.40;87.10;;;;;;5093764;28;20265;-73
2023/11/02 05:15:04;;;;;;;9.38;3.28;;;6.40;87.50;;;;;;5093444;28;20193;-73
2023/11/02 05:17:31;;;;;;;5.18;3.00;;;6.50;88.20;;;;;;5092992;28;20245;-74
2023/11/02 05:20:00;;;;;;;4.40;2.45;;;6.50;88.40;;;;;;5093150;28;20225;-74
2023/11/02 05:22:27;;;;;;;3.20;2.03;;;6.60;88.50;;;;;;5093242;28;20193;-73
2023/11/02 05:24:54;;;;;;;2.97;2.00;;;6.60;88.50;;;;;;5093412;28;20190;-74
2023/11/02 05:27:21;;;;;;;4.18;2.50;;;6.70;88.00;;;;;;5093255;28;20190;-73
2023/11/02 05:29:48;;;;;;;2.97;1.92;;;6.70;87.50;;;;;;5092688;28;20235;-73
2023/11/02 05:32:17;;;;;;;3.17;1.52;;;6.70;86.70;;;;;;5093598;28;20213;-73
2023/11/02 05:34:44;;;;;;;4.68;1.83;;;6.70;86.40;;;;;;5093650;28;20243;-73
2023/11/02 05:37:11;;;;;;;3.95;2.47;;;6.70;87.00;;;;;;5093610;28;20277;-73
2023/11/02 05:39:38;;;;;;;3.47;2.00;;;6.70;87.50;;;;;;5093145;28;20231;-73
2023/11/02 05:42:06;;;;;;;3.03;1.63;;;6.70;88.30;;;;;;5093459;28;20605;-73
2023/11/02 05:44:33;;;;;;;3.35;1.55;;;6.70;88.90;;;;;;5093502;28;20189;-73
2023/11/02 05:47:00;;;;;;;5.70;1.30;;;6.80;89.20;;;;;;5093191;28;20705;-74
2023/11/02 05:49:28;;;;;;;7.43;1.65;;;6.90;89.20;;;;;;5093201;28;20189;-73
2023/11/02 05:51:55;;;;;;;2.60;1.58;;;6.90;88.80;;;;;;5093398;28;20213;-74
2023/11/02 05:54:22;;;;;;;2.55;1.75;;;7.00;88.30;;;;;;5093385;28;20653;-73
2023/11/02 05:56:49;;;;;;;3.92;2.15;;;6.90;88.30;;;;;;5093386;28;20250;-74
2023/11/02 05:59:16;;;;;;;4.75;2.15;;;7.00;88.70;;;;;;5093092;28;20239;-73
2023/11/02 06:01:44;;;;;;;2.50;1.52;;;7.10;88.90;;;;;;5092800;28;20178;-74
2023/11/02 06:04:11;;;;;;;4.50;1.40;;;7.10;88.40;;;;;;5092520;28;20692;-74
2023/11/02 06:06:40;;;;;;;6.95;3.33;;;7.10;87.80;;;;;;5092960;28;20659;-74
2023/11/02 06:09:08;;;;;;;4.57;3.15;;;7.10;87.80;;;;;;5086667;28;20186;-74
2023/11/02 06:11:35;;;;;;;4.30;2.90;;;7.10;87.40;;;;;;5090365;28;20241;-74
2023/11/02 06:14:02;;;;;;;4.60;2.72;;;7.10;87.60;;;;;;5092952;28;20208;-74
2023/11/02 06:16:29;;;;;;;3.80;2.83;;;7.10;87.70;;;;;;5096289;28;20201;-73
2023/11/02 06:18:56;;;;;;;3.80;2.00;;;7.10;87.50;;;;;;5095386;28;20535;-74
2023/11/02 06:21:24;;;;;;;3.63;2.13;;;7.10;87.70;;;;;;5094979;28;20564;-74
2023/11/02 06:23:52;;;;;;;3.80;2.35;;;7.20;87.70;;;;;;5093247;28;20586;-73
2023/11/02 06:26:19;;;;;;;3.25;1.83;;;7.20;87.40;;;;;;5095119;28;20665;-73
2023/11/02 06:28:47;;;;;;;3.33;1.70;;;7.20;87.70;;;;;;5095811;28;20189;-74
2023/11/02 06:31:14;;;;;;;4.43;2.17;;;7.30;87.40;;;;;;5095326;28;20217;-74
2023/11/02 06:33:41;;;;;;;11.25;4.07;;;7.30;87.30;;;;;;5095662;28;20273;-74
2023/11/02 06:36:09;;;;;;;6.25;2.75;;;7.30;87.10;;;;;;5095138;28;20250;-74
2023/11/02 06:38:36;;;;;;;7.55;3.15;;;7.30;86.70;;;;;;5095116;28;20189;-74
2023/11/02 06:41:05;;;;;;;6.55;2.55;;;7.40;87.00;;;;;;5095296;28;20624;-74
2023/11/02 06:43:31;;;;;;;4.57;2.70;;;7.40;86.70;;;;;;5095225;28;20193;-74
2023/11/02 06:45:58;;;;;;;6.35;4.15;;;7.40;86.50;;;;;;5095203;28;20197;-74
2023/11/02 06:48:26;;;;;;;4.22;3.13;;;7.40;86.30;;;;;;5095147;28;20185;-74
2023/11/02 06:50:53;;;;;;;6.38;4.00;;;7.50;86.80;;;;;;5095403;28;20213;-74
2023/11/02 06:53:20;;;;;;;6.70;3.80;;;7.50;87.10;;;;;;5095514;28;20267;-74
2023/11/02 06:55:47;;;;;;;6.03;4.57;;;7.60;87.20;;;;;;5095168;28;20185;-74
2023/11/02 06:58:16;;;;;;;8.30;5.13;;;7.70;87.10;;;;;;5095244;28;20224;-74
2023/11/02 07:00:43;;;;;;;7.95;6.85;;;7.80;86.60;;;;;;5094779;28;20201;-74
2023/11/02 07:03:11;;;;;;;9.27;6.25;;;7.90;85.70;;;;;;5094339;28;20240;-74
2023/11/02 07:05:38;;;;;;;4.93;3.53;;;8.00;85.30;;;;;;5094601;28;20221;-74
2023/11/02 07:08:05;;;;;;;5.35;3.47;;;8.10;84.60;;;;;;5094053;28;20186;-74
2023/11/02 07:10:32;;;;;;;4.65;3.80;;;8.20;83.70;;;;;;5091770;28;20193;-74
2023/11/02 07:12:59;;;;;;;6.32;4.53;;;8.30;83.30;;;;;;5094068;28;20201;-75
2023/11/02 07:15:28;;;;;;;8.02;4.03;;;8.30;82.60;;;;;;5094559;28;20229;-74
2023/11/02 07:17:55;;;;;;;5.40;4.07;;;8.30;82.30;;;;;;5094286;28;20261;-74
2023/11/02 07:20:22;;;;;;;4.47;3.53;;;8.40;82.40;;;;;;5094309;28;20249;-74
2023/11/02 07:22:49;;;;;;;5.53;2.78;;;8.40;82.60;;;;;;5093259;28;20194;-75
2023/11/02 07:25:16;;;;;;;4.13;2.60;;;8.40;82.90;;;;;;5092480;28;20322;-74
2023/11/02 07:27:43;;;;;;;4.43;3.50;;;8.50;83.10;;;;;;5093404;28;20214;-74
2023/11/02 07:30:14;;;;;;;5.13;3.40;;;8.70;83.10;;;;;;5093664;28;20221;-73
2023/11/02 07:32:43;;;;;;;5.45;3.45;;;8.90;83.00;;;;;;5091653;28;20609;-74
2023/11/02 07:35:10;;;;;;;4.97;3.70;;;9.20;82.70;;;;;;5094421;28;20243;-75
2023/11/02 07:37:38;;;;;;;5.13;3.08;;;9.50;81.70;;;;;;5092586;28;20194;-75
2023/11/02 07:40:06;;;;;;;6.60;3.30;;;9.70;80.90;;;;;;5091052;28;20611;-75
2023/11/02 07:42:34;;;;;;;6.00;3.60;;;9.70;80.00;;;;;;5094524;28;20196;-74
2023/11/02 07:45:00;;;;;;;4.40;3.40;;;9.60;79.50;;;;;;5094782;28;20276;-75
2023/11/02 07:47:27;;;;;;;4.88;3.08;;;9.50;79.80;;;;;;5094470;28;20189;-74
2023/11/02 07:49:56;;;;;;;4.05;2.85;;;9.50;80.30;;;;;;5094958;28;20193;-74
2023/11/02 07:52:23;;;;;;;5.78;2.40;;;9.50;80.80;;;;;;5094467;28;20235;-74
2023/11/02 07:54:50;;;;;;;4.28;1.90;;;9.50;80.90;;;;;;5094507;28;20655;-74
2023/11/02 07:57:18;;;;;;;4.10;2.15;;;9.50;81.20;;;;;;5094477;28;20193;-75
2023/11/02 07:59:47;;;;;;;4.70;2.47;;;9.50;81.30;;;;;;5094447;28;20229;-74
2023/11/02 08:02:14;;;;;;;4.97;2.60;;;9.50;81.90;;;;;;5094375;28;20243;-75
2023/11/02 08:04:47;;;;;;;5.05;2.95;;;9.50;82.30;;;;;;5094299;28;20224;-75
2023/11/02 08:07:16;;;;;;;5.07;2.50;;;9.60;82.50;;;;;;5094398;28;20651;-74
2023/11/02 08:09:44;;;;;;;7.72;2.60;;;9.70;82.80;;;;;;5094581;28;20197;-74
2023/11/02 08:12:11;;;;;;;6.60;2.60;;;9.70;83.10;;;;;;5094049;28;20206;-74
2023/11/02 08:14:40;;;;;;;8.68;2.85;;;9.80;83.40;;;;;;5094007;28;20193;-74
2023/11/02 08:17:07;;;;;;;7.25;2.85;;;9.80;82.70;;;;;;5094085;28;20219;-74
2023/11/02 08:19:34;;;;;;;6.80;3.17;;;9.90;82.80;;;;;;5093979;28;20217;-74
2023/11/02 08:22:01;;;;;;;4.90;3.15;;;10.10;82.30;;;;;;5094341;28;20200;-75
2023/11/02 08:24:29;;;;;;;4.75;3.05;;;10.80;82.30;;;;;;5094095;28;20200;-74
2023/11/02 08:26:56;;;;;;;5.72;3.67;;;11.10;80.30;;;;;;5093797;28;20674;-75
2023/11/02 08:29:23;;;;;;;4.60;2.85;;;11.20;78.70;;;;;;5094272;28;20258;-75
2023/11/02 08:31:55;;;;;;;3.80;2.70;;;11.30;78.20;;;;;;5093773;28;20748;-75
2023/11/02 08:34:22;;;;;;;6.35;4.03;;;11.30;78.10;;;;;;5094423;28;20197;-74
2023/11/02 08:36:49;;;;;;;6.75;2.63;;;11.30;77.90;;;;;;5093692;28;20243;-74
2023/11/02 08:39:17;;;;;;;5.50;2.90;;;11.40;77.30;;;;;;5094078;28;20221;-74
2023/11/02 08:41:45;;;;;;;3.47;2.65;;;11.40;76.90;;;;;;5093946;28;20194;-75
2023/11/02 08:44:12;;;;;;;4.47;2.80;;;11.40;77.50;;;;;;5093579;28;20189;-74
2023/11/02 08:46:40;;;;;;;4.00;2.95;;;11.40;77.60;;;;;;5093967;28;20198;-74
2023/11/02 08:49:10;;;;;;;4.95;2.90;;;11.50;78.30;;;;;;5093649;28;20217;-74
2023/11/02 08:51:37;;;;;;;5.82;4.20;;;11.60;78.40;;;;;;5093436;28;20240;-74
2023/11/02 08:54:04;;;;;;;9.73;3.95;;;11.70;77.90;;;;;;5093710;28;20266;-75
2023/11/02 08:56:31;;;;;;;7.88;4.43;;;11.80;77.40;;;;;;5093737;28;20185;-74
2023/11/02 08:59:00;;;;;;;5.35;4.40;;;12.00;77.30;;;;;;5093428;28;20190;-74
2023/11/02 09:01:28;;;;;;;7.05;2.47;;;12.10;76.70;;;;;;5093765;28;20189;-74
2023/11/02 09:03:56;;;;;;;3.50;2.20;;;12.20;77.00;;;;;;5093806;28;20250;-75
2023/11/02 09:06:25;;;;;;;5.27;2.70;;;12.30;76.70;;;;;;5093249;28;20905;-74
2023/11/02 09:08:56;;;;;;;5.03;2.43;;;12.40;76.60;;;;;;5093627;28;20460;-75
2023/11/02 09:11:24;;;;;;;4.07;2.50;;;12.40;76.30;;;;;;5093588;28;20442;-75
2023/11/02 09:13:51;;;;;;;3.90;2.03;;;12.40;76.60;;;;;;5093185;28;20493;-74
2023/11/02 09:16:19;;;;;;;4.50;2.17;;;12.40;76.60;;;;;;5093297;28;20911;-75
2023/11/02 09:18:46;;;;;;;6.23;2.20;;;12.40;77.50;;;;;;5093526;28;20837;-75
2023/11/02 09:21:14;;;;;;;3.40;2.10;;;12.40;77.70;;;;;;5093787;28;20529;-74
2023/11/02 09:23:44;;;;;;;6.07;2.80;;;12.40;77.80;;;;;;5093432;28;20463;-75
2023/11/02 09:26:14;;;;;;;4.80;3.20;;;12.40;77.90;;;;;;5093430;28;20782;-75
2023/11/02 09:28:41;;;;;;;4.13;1.97;;;12.40;78.10;;;;;;5093332;28;20432;-75
2023/11/02 09:31:12;;;;;;;4.77;2.53;;;12.50;78.50;;;;;;5093354;28;20427;-75
2023/11/02 09:33:41;;;;;;;3.70;2.97;;;12.50;78.60;;;;;;5093085;28;20471;-74
2023/11/02 09:36:09;;;;;;;3.70;2.20;;;12.50;78.90;;;;;;5090203;28;20926;-75
2023/11/02 09:38:36;;;;;;;5.57;3.13;;;12.40;78.70;;;;;;5092882;28;20532;-75
2023/11/02 09:41:03;;;;;;;4.17;1.83;;;12.50;78.90;;;;;;5092302;28;20447;-75
2023/11/02 09:43:33;;;;;;;4.27;3.10;;;12.50;79.00;;;;;;5092283;28;20457;-75
2023/11/02 09:46:00;;;;;;;4.27;2.43;;;12.40;78.80;;;;;;5093368;28;20512;-74
2023/11/02 09:48:27;;;;;;;3.87;2.37;;;12.40;79.40;;;;;;5095046;28;20432;-74
2023/11/02 09:50:57;;;;;;;5.37;2.83;;;12.40;79.60;;;;;;5097307;28;20431;-74
2023/11/02 09:53:25;;;;;;;3.70;2.17;;;12.40;79.90;;;;;;5097048;28;20903;-75
2023/11/02 09:55:53;;;;;;;4.73;1.90;;;12.40;80.30;;;;;;5097180;28;20431;-74
2023/11/02 09:58:21;;;;;;;3.03;2.10;;;12.40;80.50;;;;;;5096732;28;20427;-74
2023/11/02 10:00:48;;;;;;;3.07;2.30;;;12.50;81.10;;;;;;5097207;28;20794;-75
2023/11/02 10:03:16;;;;;;;3.20;2.00;;;12.50;80.90;;;;;;5096997;28;20431;-75
2023/11/02 10:05:45;;;;;;;5.43;2.90;;;12.50;81.20;;;;;;5096684;28;20485;-74
2023/11/02 10:08:13;;;;;;;6.80;2.93;;;12.50;81.10;;;;;;5096909;28;20485;-74
2023/11/02 10:10:40;;;;;;;4.10;3.20;;;12.50;80.90;;;;;;5096563;28;20435;-75
2023/11/02 10:13:07;;;;;;;6.87;3.73;;;12.60;81.10;;;;;;5096055;28;20541;-75
2023/11/02 10:15:34;;;;;;;5.00;3.37;;;12.60;81.30;;;;;;5096459;28;20423;-75
2023/11/02 10:18:04;;;;;;;6.80;4.63;;;12.60;81.50;;;;;;5096436;28;20837;-75
2023/11/02 10:20:31;;;;;;;7.53;4.40;;;12.70;81.40;;;;;;5096630;28;21010;-75
2023/11/02 10:23:00;;;;;;;11.80;5.23;;;12.70;80.80;;;;;;5096300;28;20484;-75
2023/11/02 10:25:29;;;;;;;8.23;5.50;;;12.70;81.20;;;;;;5096572;28;20516;-75
2023/11/02 10:28:00;;;;;;;9.40;5.23;;;12.70;81.40;;;;;;5096123;28;20492;-74
2023/11/02 10:30:28;;;;;;;8.37;5.33;;;12.80;81.60;;;;;;5096522;28;20424;-75
2023/11/02 10:33:04;;;;;;;7.87;4.67;;;12.80;81.70;;;;;;5096028;28;20524;-75
2023/11/02 10:35:30;;;;;;;4.90;4.03;;;12.70;82.20;;;;;;5096120;28;20423;-74
2023/11/02 10:38:01;;;;;;;5.57;3.27;;;12.80;82.50;;;;;;5096372;28;20420;-75
2023/11/02 10:40:43;;;;;;;5.20;3.33;;;12.70;82.40;;;;;;5096223;28;20983;-75
2023/11/02 10:43:16;;;;;;;4.80;2.90;;;12.70;82.80;;;;;;5096080;28;20894;-75
2023/11/02 10:45:48;;;;;;;3.80;2.23;;;12.70;83.20;;;;;;5095905;28;20420;-74
2023/11/02 10:48:17;;;;;;;3.70;2.30;;;12.70;83.50;;;;;;5095881;28;20426;-74
2023/11/02 10:50:46;;;;;;;4.50;1.90;;;12.60;83.50;;;;;;5095767;28;20510;-74
2023/11/02 10:53:18;;;;;;;3.13;1.90;;;12.60;83.90;;;;;;5095631;28;21003;-74
2023/11/02 10:55:50;;;;;;;3.10;1.60;;;12.60;84.10;;;;;;5095628;28;20420;-75
2023/11/02 10:58:19;;;;;;;3.50;2.23;;;12.50;84.10;;;;;;5095756;28;20455;-74
2023/11/02 11:00:50;;;;;;;3.60;2.20;;;12.50;84.40;;;;;;5095953;28;20771;-75
2023/11/02 11:03:18;;;;;;;3.03;1.83;;;12.50;85.20;;;;;;5095640;28;20910;-74
2023/11/02 11:05:46;;;;;;;3.70;1.90;;;12.50;86.00;;;;;;5095705;28;20485;-75
2023/11/02 11:08:13;;;;;;;5.07;1.87;;;12.50;86.50;;;;;;5095487;28;20914;-75
2023/11/02 11:10:42;;;;;;;3.53;1.87;;;12.50;87.00;;;;;;5095543;28;20431;-75
2023/11/02 11:13:12;;;;;;;6.00;2.57;;;12.50;87.30;;;;;;5095564;28;20471;-75
2023/11/02 11:15:40;;;;;;;5.60;3.13;;;12.50;87.80;;;;;;5095631;28;20432;-75
2023/11/02 11:18:08;;;;;;;6.03;3.10;;;12.60;87.80;;;;;;5095563;28;20478;-75
2023/11/02 11:20:35;;;;;;;4.23;2.47;;;12.60;87.50;;;;;;5095034;28;20460;-75
2023/11/02 11:23:04;;;;;;;5.50;2.60;;;12.60;87.50;;;;;;5095160;28;20423;-75
2023/11/02 11:25:31;;;;;;;3.70;2.40;;;12.70;87.70;;;;;;5092955;28;20493;-76
2023/11/02 11:27:58;;;;;;;5.27;2.80;;;12.70;88.20;;;;;;5073936;28;20519;-75
2023/11/02 11:30:42;;;;;;;3.70;2.10;;;12.80;88.20;;;;;;5084753;28;20435;-75
2023/11/02 11:33:49;;;;;;;4.93;2.87;;;12.90;88.40;;;;;;5093591;28;20471;-75
2023/11/02 11:36:23;;;;;;;4.50;2.23;;;12.90;88.00;;;;;;5094596;28;20443;-75
2023/11/02 11:38:51;;;;;;;3.13;1.80;;;13.00;87.50;;;;;;5093668;28;20484;-75
2023/11/02 11:41:46;;;;;;;6.63;2.00;;;13.00;86.90;;;;;;5094931;28;20427;-75
2023/11/02 11:44:20;;;;;;;3.60;2.20;;;13.00;85.90;;;;;;5094700;28;20523;-74
2023/11/02 11:46:51;;;;;;;3.13;1.70;;;13.00;85.20;;;;;;5094805;28;20921;-75
2023/11/02 11:49:48;;;;;;;3.60;1.50;;;13.10;85.20;;;;;;5095056;28;20891;-74
2023/11/02 11:52:36;;;;;;;5.47;1.60;;;13.00;85.40;;;;;;5089395;28;20795;-74
2023/11/02 11:55:38;;;;;;;2.70;1.50;;;13.10;83.60;;;;;;5090933;28;20451;-75
2023/11/02 11:58:08;;;;;;;3.03;1.20;;;13.10;81.40;;;;;;5093927;28;20909;-75
2023/11/02 12:00:36;;;;;;;5.40;2.30;;;13.20;80.60;;;;;;5094583;28;20436;-75
2023/11/02 12:03:07;;;;;;;2.50;1.10;;;13.30;79.70;;;;;;5094405;28;20830;-75
2023/11/02 12:05:56;;;;;;;3.10;1.17;;;13.40;75.50;;;;;;5094691;28;20412;-75
2023/11/02 12:08:23;;;;;;;2.87;1.10;;;13.50;72.10;;;;;;5094232;28;20450;-75
2023/11/02 12:10:55;;;;;;;2.00;1.00;;;13.60;71.50;;;;;;5093896;28;20424;-75
2023/11/02 12:13:23;;;;;;;2.80;1.30;;;13.70;69.60;;;;;;5094491;28;20806;-75
2023/11/02 12:15:56;;;;;;;2.63;1.03;;;13.70;69.40;;;;;;5094424;28;20436;-75
2023/11/02 12:18:27;;;;;;;2.23;1.00;;;13.70;69.50;;;;;;5093377;28;20428;-75
2023/11/02 12:20:56;;;;;;;3.00;0.97;;;13.80;68.30;;;;;;5093874;28;20463;-75
2023/11/02 12:23:31;;;;;;;2.87;1.00;;;13.70;67.70;;;;;;5094302;28;20835;-75
2023/11/02 12:25:59;;;;;;;4.40;1.00;;;13.60;67.80;;;;;;5092308;28;20977;-75
2023/11/02 12:28:27;;;;;;;2.20;0.97;;;13.60;68.40;;;;;;5080124;28;20459;-75
2023/11/02 12:30:54;;;;;;;1.80;0.70;;;13.50;67.40;;;;;;5092469;28;20431;-75
2023/11/02 12:33:22;;;;;;;2.53;0.93;;;13.40;67.30;;;;;;5085199;28;21031;-75
2023/11/02 12:35:56;;;;;;;2.00;0.90;;;13.30;68.30;;;;;;5093933;28;20508;-75
2023/11/02 12:38:44;;;;;;;2.23;0.83;;;13.30;68.90;;;;;;5093180;28;20481;-75
2023/11/02 12:41:12;;;;;;;1.97;0.70;;;13.20;68.60;;;;;;5090977;28;20964;-75
2023/11/02 12:43:40;;;;;;;2.50;1.10;;;13.10;68.60;;;;;;5094021;28;20755;-75
2023/11/02 12:46:10;;;;;;;2.40;1.40;;;13.10;69.10;;;;;;5092897;28;20440;-76
2023/11/02 12:48:39;;;;;;;3.60;1.10;;;13.00;69.30;;;;;;5092850;28;20934;-74
2023/11/02 12:51:20;;;;;;;2.87;1.30;;;13.00;69.70;;;;;;5093238;28;20797;-75
2023/11/02 12:53:48;;;;;;;2.30;1.10;;;13.00;70.40;;;;;;5093616;28;20467;-74
2023/11/02 12:56:25;;;;;;;2.57;1.17;;;13.00;70.50;;;;;;5091762;28;20488;-75
2023/11/02 12:58:59;;;;;;;2.90;1.27;;;13.00;70.90;;;;;;5091193;28;20439;-75
2023/11/02 13:01:45;;;;;;;2.90;1.23;;;12.90;71.30;;;;;;5093474;28;20470;-75
2023/11/02 13:04:13;;;;;;;2.40;1.00;;;12.90;71.10;;;;;;5093114;28;20500;-75
2023/11/02 13:06:42;;;;;;;2.87;1.37;;;13.00;70.90;;;;;;5093596;28;20534;-75
2023/11/02 13:09:13;;;;;;;2.43;1.10;;;12.90;70.40;;;;;;5093211;28;20436;-75
2023/11/02 13:11:45;;;;;;;2.70;1.23;;;12.80;71.20;;;;;;5093254;28;20438;-75
2023/11/02 13:14:15;;;;;;;1.90;0.80;;;12.80;71.80;;;;;;5093504;28;20547;-75